createdAt,value
2017-12-02T00:00:33.378Z,-2.08
2017-12-02T00:01:36.604Z,-1.98
2017-12-02T00:02:39.514Z,-1.98
2017-12-02T00:03:42.530Z,-2.02
2017-12-02T00:04:45.457Z,-2.07
2017-12-02T00:05:48.419Z,-2.12
2017-12-02T00:06:51.391Z,-2.02
2017-12-02T00:07:54.922Z,-2.12
2017-12-02T00:08:57.935Z,-2.12
2017-12-02T00:10:00.855Z,-2.15
2017-12-02T00:11:03.776Z,-2.13
2017-12-02T00:12:06.742Z,-2.14
2017-12-02T00:13:09.662Z,-2.09
2017-12-02T00:14:12.830Z,-2.06
2017-12-02T00:15:15.730Z,-2.12
2017-12-02T00:16:18.646Z,-2.21
2017-12-02T00:17:21.581Z,-2.15
2017-12-02T00:18:24.490Z,-2.20
2017-12-02T00:19:27.384Z,-2.29
2017-12-02T00:20:30.622Z,-2.25
2017-12-02T00:21:33.512Z,-2.17
2017-12-02T00:22:36.411Z,-2.16
2017-12-02T00:23:39.303Z,-2.35
2017-12-02T00:24:42.195Z,-2.42
2017-12-02T00:25:45.109Z,-2.45
2017-12-02T00:26:48.467Z,-2.49
2017-12-02T00:27:51.356Z,-2.54
2017-12-02T00:28:54.239Z,-2.27
2017-12-02T00:29:57.171Z,-2.24
2017-12-02T00:31:00.071Z,-2.32
2017-12-02T00:32:02.999Z,-2.23
2017-12-02T00:33:06.209Z,-2.36
2017-12-02T00:34:09.115Z,-2.40
2017-12-02T00:35:12.068Z,-2.58
2017-12-02T00:36:14.999Z,-2.59
2017-12-02T00:37:17.943Z,-2.57
2017-12-02T00:38:20.865Z,-2.56
2017-12-02T00:39:24.073Z,-2.66
2017-12-02T00:40:26.988Z,-2.70
2017-12-02T00:41:29.917Z,-2.47
2017-12-02T00:42:32.920Z,-2.52
2017-12-02T00:43:35.817Z,-2.71
2017-12-02T00:44:38.767Z,-2.65
2017-12-02T00:45:41.985Z,-2.71
2017-12-02T00:46:44.879Z,-2.65
2017-12-02T00:47:47.872Z,-2.65
2017-12-02T00:48:50.772Z,-2.67
2017-12-02T00:49:53.720Z,-2.55
2017-12-02T00:50:56.692Z,-2.61
2017-12-02T00:51:59.899Z,-2.67
2017-12-02T00:53:02.946Z,-2.64
2017-12-02T00:54:05.899Z,-2.61
2017-12-02T00:55:08.830Z,-2.85
2017-12-02T00:56:11.778Z,-2.81
2017-12-02T00:57:14.682Z,-2.72
2017-12-02T00:58:17.921Z,-2.66
2017-12-02T00:59:20.807Z,-2.70
2017-12-02T01:00:23.664Z,-2.92
2017-12-02T01:01:26.672Z,-2.92
2017-12-02T01:02:29.560Z,-3.00
2017-12-02T01:03:32.550Z,-2.92
2017-12-02T01:04:35.616Z,-2.86
2017-12-02T01:05:38.703Z,-2.76
2017-12-02T01:06:41.626Z,-2.79
2017-12-02T01:07:44.580Z,-2.75
2017-12-02T01:08:47.492Z,-2.76
2017-12-02T01:09:50.712Z,-2.65
2017-12-02T01:10:53.782Z,-2.73
2017-12-02T01:11:56.809Z,-2.81
2017-12-02T01:12:59.726Z,-2.76
2017-12-02T01:14:02.767Z,-2.51
2017-12-02T01:15:05.695Z,-2.60
2017-12-02T01:16:09.071Z,-2.57
2017-12-02T01:17:12.136Z,-2.54
2017-12-02T01:18:15.111Z,-2.64
2017-12-02T01:19:17.977Z,-2.72
2017-12-02T01:20:20.915Z,-2.83
2017-12-02T01:21:23.999Z,-2.84
2017-12-02T01:22:26.892Z,-2.90
2017-12-02T01:23:30.595Z,-2.81
2017-12-02T01:24:33.682Z,-3.00
2017-12-02T01:25:36.772Z,-2.95
2017-12-02T01:26:39.725Z,-2.76
2017-12-02T01:27:42.980Z,-2.96
2017-12-02T01:28:45.897Z,-2.98
2017-12-02T01:29:48.800Z,-2.90
2017-12-02T01:30:51.780Z,-3.00
2017-12-02T01:31:54.807Z,-2.83
2017-12-02T01:32:57.704Z,-2.75
2017-12-02T01:34:00.884Z,-2.69
2017-12-02T01:35:03.809Z,-2.71
2017-12-02T01:36:06.740Z,-2.69
2017-12-02T01:37:09.671Z,-2.56
2017-12-02T01:38:12.576Z,-2.37
2017-12-02T01:39:15.524Z,-2.73
2017-12-02T01:40:18.749Z,-2.75
2017-12-02T01:41:21.665Z,-2.52
2017-12-02T01:42:24.594Z,-2.50
2017-12-02T01:43:27.521Z,-2.71
2017-12-02T01:44:30.874Z,-2.81
2017-12-02T01:45:33.752Z,-2.69
2017-12-02T01:46:36.692Z,-2.63
2017-12-02T01:47:40.247Z,-2.60
2017-12-02T01:48:43.151Z,-2.76
2017-12-02T01:49:46.104Z,-2.81
2017-12-02T01:50:49.016Z,-2.86
2017-12-02T01:51:51.928Z,-2.72
2017-12-02T01:52:54.848Z,-2.60
2017-12-02T01:53:57.777Z,-2.68
2017-12-02T01:55:00.726Z,-2.78
2017-12-02T01:56:03.624Z,-2.73
2017-12-02T01:57:07.024Z,-2.78
2017-12-02T01:58:09.971Z,-2.70
2017-12-02T01:59:12.869Z,-2.60
2017-12-02T02:00:15.755Z,-2.58
2017-12-02T02:01:18.771Z,-2.31
2017-12-02T02:02:21.744Z,-2.74
2017-12-02T02:03:25.049Z,-2.71
2017-12-02T02:04:28.047Z,-2.70
2017-12-02T02:05:30.958Z,-2.78
2017-12-02T02:06:34.138Z,-2.62
2017-12-02T02:07:37.126Z,-2.54
2017-12-02T02:08:40.029Z,-2.77
2017-12-02T02:09:43.371Z,-2.48
2017-12-02T02:10:46.302Z,-2.81
2017-12-02T02:11:49.224Z,-2.52
2017-12-02T02:12:52.124Z,-2.53
2017-12-02T02:13:55.064Z,-2.45
2017-12-02T02:14:57.971Z,-2.38
2017-12-02T02:16:01.203Z,-2.09
2017-12-02T02:17:05.021Z,-2.39
2017-12-02T02:18:08.463Z,-2.66
2017-12-02T02:19:11.275Z,-2.58
2017-12-02T02:20:14.102Z,-2.46
2017-12-02T02:21:16.974Z,-2.22
2017-12-02T02:22:20.320Z,-2.28
2017-12-02T02:23:23.269Z,-2.30
2017-12-02T02:24:26.304Z,-2.31
2017-12-02T02:25:29.313Z,-2.35
2017-12-02T02:26:32.253Z,-2.43
2017-12-02T02:27:35.224Z,-2.57
2017-12-02T02:28:38.564Z,-2.23
2017-12-02T02:29:41.553Z,-2.45
2017-12-02T02:30:44.477Z,-2.79
2017-12-02T02:31:47.407Z,-2.45
2017-12-02T02:32:50.349Z,-2.75
2017-12-02T02:33:53.346Z,-2.73
2017-12-02T02:34:56.673Z,-2.53
2017-12-02T02:35:59.634Z,-2.36
2017-12-02T02:37:02.605Z,-2.73
2017-12-02T02:38:05.549Z,-2.35
2017-12-02T02:39:08.469Z,-2.57
2017-12-02T02:40:11.399Z,-2.52
2017-12-02T02:41:14.677Z,-2.54
2017-12-02T02:42:17.620Z,-2.42
2017-12-02T02:43:20.513Z,-2.43
2017-12-02T02:44:23.488Z,-2.55
2017-12-02T02:45:26.384Z,-2.65
2017-12-02T02:46:29.321Z,-2.66
2017-12-02T02:47:32.740Z,-2.79
2017-12-02T02:48:35.653Z,-2.56
2017-12-02T02:49:38.598Z,-2.41
2017-12-02T02:50:41.622Z,-2.28
2017-12-02T02:51:44.652Z,-2.35
2017-12-02T02:52:47.489Z,-2.44
2017-12-02T02:53:50.790Z,-2.35
2017-12-02T02:54:53.722Z,-2.11
2017-12-02T02:55:56.627Z,-2.18
2017-12-02T02:56:59.480Z,-2.63
2017-12-02T02:58:02.460Z,-2.34
2017-12-02T02:59:05.376Z,-2.40
2017-12-02T03:00:08.301Z,-2.28
2017-12-02T03:01:11.841Z,-2.53
2017-12-02T03:02:14.738Z,-2.63
2017-12-02T03:03:17.665Z,-2.66
2017-12-02T03:04:20.553Z,-2.43
2017-12-02T03:05:23.535Z,-2.40
2017-12-02T03:06:26.443Z,-2.26
2017-12-02T03:07:29.391Z,-2.35
2017-12-02T03:08:32.392Z,-2.06
2017-12-02T03:09:35.371Z,-1.94
2017-12-02T03:10:38.318Z,-2.14
2017-12-02T03:11:41.664Z,-2.19
2017-12-02T03:12:44.576Z,-2.11
2017-12-02T03:13:47.513Z,-2.45
2017-12-02T03:14:50.408Z,-2.13
2017-12-02T03:15:53.388Z,-2.33
2017-12-02T03:16:56.316Z,-2.34
2017-12-02T03:17:59.743Z,-2.27
2017-12-02T03:19:02.643Z,-2.09
2017-12-02T03:20:05.579Z,-1.92
2017-12-02T03:21:08.395Z,-2.09
2017-12-02T03:22:11.266Z,-2.21
2017-12-02T03:23:14.103Z,-2.07
2017-12-02T03:24:17.391Z,-2.15
2017-12-02T03:25:20.343Z,-2.43
2017-12-02T03:26:23.301Z,-2.24
2017-12-02T03:27:26.292Z,-2.23
2017-12-02T03:28:29.210Z,-2.36
2017-12-02T03:29:32.057Z,-2.22
2017-12-02T03:30:35.347Z,-2.27
2017-12-02T03:31:38.179Z,-2.24
2017-12-02T03:32:40.999Z,-2.28
2017-12-02T03:33:43.830Z,-2.43
2017-12-02T03:34:47.123Z,-2.61
2017-12-02T03:35:49.986Z,-2.35
2017-12-02T03:36:53.216Z,-2.29
2017-12-02T03:37:56.047Z,-2.51
2017-12-02T03:38:58.957Z,-2.57
2017-12-02T03:40:01.890Z,-2.58
2017-12-02T03:41:04.866Z,-2.59
2017-12-02T03:42:07.784Z,-2.23
2017-12-02T03:43:11.268Z,-2.54
2017-12-02T03:44:14.248Z,-2.21
2017-12-02T03:45:17.128Z,-2.27
2017-12-02T03:46:19.969Z,-2.17
2017-12-02T03:47:22.808Z,-2.32
2017-12-02T03:48:25.693Z,-2.16
2017-12-02T03:49:29.055Z,-2.01
2017-12-02T03:50:31.953Z,-2.04
2017-12-02T03:51:34.884Z,-2.03
2017-12-02T03:52:37.894Z,-1.86
2017-12-02T03:53:40.681Z,-1.89
2017-12-02T03:54:43.497Z,-1.91
2017-12-02T03:55:47.045Z,-2.10
2017-12-02T03:56:49.951Z,-2.29
2017-12-02T03:57:52.947Z,-2.29
2017-12-02T03:58:56.018Z,-2.27
2017-12-02T03:59:59.113Z,-2.32
2017-12-02T04:01:02.121Z,-1.90
2017-12-02T04:02:05.517Z,-1.93
2017-12-02T04:03:09.491Z,-1.94
2017-12-02T04:04:12.559Z,-2.06
2017-12-02T04:05:15.557Z,-1.91
2017-12-02T04:06:18.583Z,-1.92
2017-12-02T04:07:21.502Z,-2.15
2017-12-02T04:08:24.870Z,-2.20
2017-12-02T04:09:27.830Z,-2.02
2017-12-02T04:10:30.758Z,-2.14
2017-12-02T04:11:33.628Z,-2.18
2017-12-02T04:12:36.578Z,-2.36
2017-12-02T04:13:39.420Z,-2.26
2017-12-02T04:14:42.621Z,-2.39
2017-12-02T04:15:45.562Z,-2.32
2017-12-02T04:16:48.553Z,-2.38
2017-12-02T04:17:51.563Z,-2.40
2017-12-02T04:18:54.533Z,-2.21
2017-12-02T04:19:57.472Z,-2.30
2017-12-02T04:21:00.900Z,-2.30
2017-12-02T04:22:03.821Z,-1.93
2017-12-02T04:23:06.781Z,-1.91
2017-12-02T04:24:09.700Z,-1.94
2017-12-02T04:25:12.630Z,-2.13
2017-12-02T04:26:15.683Z,-2.22
2017-12-02T04:27:18.913Z,-2.37
2017-12-02T04:28:21.767Z,-2.30
2017-12-02T04:29:24.601Z,-2.35
2017-12-02T04:30:27.503Z,-2.22
2017-12-02T04:31:30.434Z,-2.34
2017-12-02T04:32:33.267Z,-2.02
2017-12-02T04:33:36.545Z,-1.90
2017-12-02T04:34:39.368Z,-2.10
2017-12-02T04:35:42.212Z,-2.10
2017-12-02T04:36:45.050Z,-1.97
2017-12-02T04:37:47.901Z,-2.12
2017-12-02T04:38:50.737Z,-2.18
2017-12-02T04:39:53.987Z,-2.21
2017-12-02T04:40:56.834Z,-2.11
2017-12-02T04:41:59.683Z,-2.11
2017-12-02T04:43:02.551Z,-1.90
2017-12-02T04:44:05.384Z,-1.88
2017-12-02T04:45:08.246Z,-1.92
2017-12-02T04:46:11.433Z,-1.71
2017-12-02T04:47:14.251Z,-1.68
2017-12-02T04:48:17.094Z,-1.76
2017-12-02T04:49:19.934Z,-1.78
2017-12-02T04:50:22.852Z,-2.07
2017-12-02T04:51:25.780Z,-2.00
2017-12-02T04:52:29.191Z,-2.09
2017-12-02T04:53:32.062Z,-2.13
2017-12-02T04:54:35.003Z,-2.12
2017-12-02T04:55:37.947Z,-1.87
2017-12-02T04:56:40.964Z,-1.86
2017-12-02T04:57:43.884Z,-2.09
2017-12-02T04:58:47.213Z,-1.97
2017-12-02T04:59:50.075Z,-2.00
2017-12-02T05:00:53.028Z,-1.92
2017-12-02T05:01:55.965Z,-1.95
2017-12-02T05:02:59.012Z,-1.84
2017-12-02T05:04:01.993Z,-1.80
2017-12-02T05:05:05.323Z,-1.67
2017-12-02T05:06:08.244Z,-1.81
2017-12-02T05:07:11.181Z,-1.69
2017-12-02T05:08:14.145Z,-2.05
2017-12-02T05:09:17.091Z,-1.94
2017-12-02T05:10:20.044Z,-2.00
2017-12-02T05:11:23.329Z,-1.93
2017-12-02T05:12:26.232Z,-1.84
2017-12-02T05:13:29.152Z,-2.04
2017-12-02T05:14:32.090Z,-1.93
2017-12-02T05:15:35.048Z,-1.80
2017-12-02T05:16:37.985Z,-2.11
2017-12-02T05:17:41.372Z,-2.14
2017-12-02T05:18:44.300Z,-1.99
2017-12-02T05:19:47.232Z,-2.00
2017-12-02T05:20:50.142Z,-1.74
2017-12-02T05:21:53.085Z,-1.60
2017-12-02T05:22:56.060Z,-1.44
2017-12-02T05:23:59.477Z,-1.30
2017-12-02T05:25:02.465Z,-1.50
2017-12-02T05:26:05.384Z,-1.70
2017-12-02T05:27:08.328Z,-1.87
2017-12-02T05:28:11.275Z,-1.67
2017-12-02T05:29:14.233Z,-1.94
2017-12-02T05:30:17.573Z,-1.69
2017-12-02T05:31:20.523Z,-2.03
2017-12-02T05:32:23.430Z,-1.98
2017-12-02T05:33:26.354Z,-2.02
2017-12-02T05:34:29.311Z,-1.76
2017-12-02T05:35:32.301Z,-1.84
2017-12-02T05:36:35.641Z,-1.69
2017-12-02T05:37:38.552Z,-1.69
2017-12-02T05:38:41.485Z,-1.78
2017-12-02T05:39:44.466Z,-1.86
2017-12-02T05:40:47.396Z,-1.82
2017-12-02T05:41:50.267Z,-1.96
2017-12-02T05:42:53.578Z,-1.94
2017-12-02T05:43:56.451Z,-2.01
2017-12-02T05:44:59.326Z,-2.00
2017-12-02T05:46:02.208Z,-1.89
2017-12-02T05:47:05.089Z,-2.00
2017-12-02T05:48:07.946Z,-1.87
2017-12-02T05:49:11.225Z,-1.99
2017-12-02T05:50:14.078Z,-1.74
2017-12-02T05:51:16.998Z,-1.65
2017-12-02T05:52:19.878Z,-1.66
2017-12-02T05:53:22.721Z,-1.59
2017-12-02T05:54:25.549Z,-1.67
2017-12-02T05:55:28.951Z,-1.73
2017-12-02T05:56:31.885Z,-1.77
2017-12-02T05:57:34.826Z,-1.81
2017-12-02T05:58:37.779Z,-1.92
2017-12-02T05:59:40.723Z,-1.92
2017-12-02T06:00:43.637Z,-1.64
2017-12-02T06:01:46.976Z,-1.54
2017-12-02T06:02:49.940Z,-1.81
2017-12-02T06:03:53.066Z,-1.71
2017-12-02T06:04:56.030Z,-1.72
2017-12-02T06:05:59.074Z,-1.69
2017-12-02T06:07:02.038Z,-1.80
2017-12-02T06:08:05.426Z,-1.86
2017-12-02T06:09:08.394Z,-1.94
2017-12-02T06:10:11.277Z,-1.90
2017-12-02T06:11:14.230Z,-1.98
2017-12-02T06:12:17.109Z,-1.83
2017-12-02T06:13:20.121Z,-1.89
2017-12-02T06:14:23.470Z,-1.87
2017-12-02T06:15:26.302Z,-1.69
2017-12-02T06:16:29.109Z,-1.90
2017-12-02T06:17:31.962Z,-1.92
2017-12-02T06:18:34.924Z,-1.96
2017-12-02T06:19:37.845Z,-1.84
2017-12-02T06:20:41.324Z,-1.87
2017-12-02T06:21:44.200Z,-2.07
2017-12-02T06:22:47.031Z,-1.99
2017-12-02T06:23:49.996Z,-2.06
2017-12-02T06:24:52.971Z,-1.78
2017-12-02T06:25:55.911Z,-1.79
2017-12-02T06:26:59.241Z,-1.79
2017-12-02T06:28:02.221Z,-1.79
2017-12-02T06:29:05.176Z,-1.79
2017-12-02T06:30:08.118Z,-1.64
2017-12-02T06:31:11.690Z,-1.58
2017-12-02T06:32:14.562Z,-1.64
2017-12-02T06:33:17.824Z,-1.58
2017-12-02T06:34:20.806Z,-1.78
2017-12-02T06:35:23.781Z,-1.57
2017-12-02T06:36:26.637Z,-1.41
2017-12-02T06:37:29.500Z,-1.79
2017-12-02T06:38:32.412Z,-1.53
2017-12-02T06:39:35.746Z,-1.61
2017-12-02T06:40:38.611Z,-1.43
2017-12-02T06:41:41.500Z,-1.63
2017-12-02T06:42:44.457Z,-1.81
2017-12-02T06:43:47.536Z,-1.95
2017-12-02T06:44:50.529Z,-1.85
2017-12-02T06:45:54.180Z,-1.86
2017-12-02T06:46:57.261Z,-1.63
2017-12-02T06:48:00.234Z,-1.67
2017-12-02T06:49:03.371Z,-1.67
2017-12-02T06:50:06.344Z,-1.91
2017-12-02T06:51:09.345Z,-1.82
2017-12-02T06:52:12.611Z,-1.83
2017-12-02T06:53:15.646Z,-1.88
2017-12-02T06:54:18.640Z,-1.96
2017-12-02T06:55:21.614Z,-1.93
2017-12-02T06:56:24.572Z,-1.82
2017-12-02T06:57:27.497Z,-1.78
2017-12-02T06:58:30.826Z,-1.83
2017-12-02T06:59:33.742Z,-1.96
2017-12-02T07:00:36.713Z,-1.93
2017-12-02T07:01:39.847Z,-1.83
2017-12-02T07:02:42.892Z,-1.72
2017-12-02T07:03:46.393Z,-1.91
2017-12-02T07:04:49.471Z,-1.99
2017-12-02T07:05:52.617Z,-1.81
2017-12-02T07:06:55.733Z,-1.72
2017-12-02T07:07:58.888Z,-1.59
2017-12-02T07:09:01.921Z,-1.81
2017-12-02T07:10:05.521Z,-1.72
2017-12-02T07:11:08.690Z,-1.78
2017-12-02T07:12:11.812Z,-1.93
2017-12-02T07:13:14.967Z,-1.78
2017-12-02T07:14:18.135Z,-1.86
2017-12-02T07:15:21.212Z,-1.76
2017-12-02T07:16:24.911Z,-1.78
2017-12-02T07:17:27.997Z,-1.92
2017-12-02T07:18:31.102Z,-1.95
2017-12-02T07:19:34.216Z,-1.78
2017-12-02T07:20:37.318Z,-1.91
2017-12-02T07:21:41.267Z,-1.83
2017-12-02T07:22:44.691Z,-1.77
2017-12-02T07:23:47.797Z,-1.61
2017-12-02T07:24:50.843Z,-1.54
2017-12-02T07:25:53.884Z,-1.84
2017-12-02T07:26:56.944Z,-1.71
2017-12-02T07:27:59.972Z,-1.63
2017-12-02T07:29:03.401Z,-1.74
2017-12-02T07:30:06.550Z,-1.81
2017-12-02T07:31:09.684Z,-1.70
2017-12-02T07:32:12.724Z,-1.70
2017-12-02T07:33:15.642Z,-1.67
2017-12-02T07:34:18.598Z,-1.67
2017-12-02T07:35:21.879Z,-1.73
2017-12-02T07:36:24.846Z,-1.78
2017-12-02T07:37:27.844Z,-1.78
2017-12-02T07:38:30.759Z,-1.68
2017-12-02T07:39:33.813Z,-1.72
2017-12-02T07:40:36.717Z,-1.63
2017-12-02T07:41:39.740Z,-1.48
2017-12-02T07:42:42.709Z,-1.39
2017-12-02T07:43:45.725Z,-1.52
2017-12-02T07:44:48.804Z,-1.29
2017-12-02T07:45:51.795Z,-1.39
2017-12-02T07:46:55.183Z,-1.51
2017-12-02T07:47:58.114Z,-1.41
2017-12-02T07:49:01.149Z,-1.47
2017-12-02T07:50:04.131Z,-1.33
2017-12-02T07:51:07.079Z,-1.54
2017-12-02T07:52:10.014Z,-1.66
2017-12-02T07:53:13.415Z,-1.63
2017-12-02T07:54:16.334Z,-1.51
2017-12-02T07:55:19.295Z,-1.46
2017-12-02T07:56:22.289Z,-1.57
2017-12-02T07:57:25.357Z,-1.42
2017-12-02T07:58:28.354Z,-1.44
2017-12-02T07:59:31.801Z,-1.57
2017-12-02T08:00:34.768Z,-1.51
2017-12-02T08:01:37.728Z,-1.46
2017-12-02T08:02:40.749Z,-1.51
2017-12-02T08:03:43.559Z,-1.42
2017-12-02T08:04:46.443Z,-1.42
2017-12-02T08:05:49.636Z,-1.37
2017-12-02T08:06:52.500Z,-1.27
2017-12-02T08:07:55.326Z,-1.10
2017-12-02T08:08:58.170Z,-1.16
2017-12-02T08:10:01.010Z,-1.16
2017-12-02T08:11:03.962Z,-1.46
2017-12-02T08:12:07.421Z,-1.44
2017-12-02T08:13:10.382Z,-1.39
2017-12-02T08:14:13.322Z,-1.38
2017-12-02T08:15:16.283Z,-1.35
2017-12-02T08:16:19.243Z,-1.33
2017-12-02T08:17:22.243Z,-1.02
2017-12-02T08:18:25.589Z,-1.17
2017-12-02T08:19:28.547Z,-1.14
2017-12-02T08:20:31.713Z,-1.12
2017-12-02T08:21:34.783Z,-1.20
2017-12-02T08:22:37.758Z,-1.27
2017-12-02T08:23:40.723Z,-1.28
2017-12-02T08:24:43.879Z,-1.31
2017-12-02T08:25:46.713Z,-1.26
2017-12-02T08:26:49.546Z,-1.24
2017-12-02T08:27:52.426Z,-1.22
2017-12-02T08:28:55.397Z,-1.45
2017-12-02T08:29:58.311Z,-1.35
2017-12-02T08:31:01.713Z,-1.28
2017-12-02T08:32:04.652Z,-1.00
2017-12-02T08:33:07.617Z,-1.01
2017-12-02T08:34:10.594Z,-1.11
2017-12-02T08:35:13.531Z,-1.36
2017-12-02T08:36:16.445Z,-1.38
2017-12-02T08:37:19.482Z,-1.29
2017-12-02T08:38:22.410Z,-1.23
2017-12-02T08:39:25.402Z,-1.37
2017-12-02T08:40:28.463Z,-1.17
2017-12-02T08:41:31.469Z,-1.23
2017-12-02T08:42:34.410Z,-1.21
2017-12-02T08:43:37.852Z,-1.04
2017-12-02T08:44:40.822Z,-0.93
2017-12-02T08:45:43.787Z,-1.03
2017-12-02T08:46:46.717Z,-0.92
2017-12-02T08:47:49.599Z,-0.91
2017-12-02T08:48:52.550Z,-0.99
2017-12-02T08:49:55.911Z,-0.96
2017-12-02T08:50:58.878Z,-0.98
2017-12-02T08:52:01.875Z,-1.03
2017-12-02T08:53:04.871Z,-0.93
2017-12-02T08:54:07.818Z,-0.85
2017-12-02T08:55:11.553Z,-0.97
2017-12-02T08:56:14.965Z,-0.97
2017-12-02T08:57:17.976Z,-0.93
2017-12-02T08:58:20.901Z,-0.89
2017-12-02T08:59:23.930Z,-0.92
2017-12-02T09:00:26.918Z,-0.95
2017-12-02T09:01:29.958Z,-1.04
2017-12-02T09:02:33.356Z,-1.00
2017-12-02T09:03:36.481Z,-0.99
2017-12-02T09:04:39.477Z,-1.13
2017-12-02T09:05:42.469Z,-0.96
2017-12-02T09:06:45.408Z,-1.00
2017-12-02T09:07:48.418Z,-0.97
2017-12-02T09:08:51.358Z,-0.91
2017-12-02T09:09:54.425Z,-1.00
2017-12-02T09:10:57.367Z,-0.92
2017-12-02T09:12:00.331Z,-0.91
2017-12-02T09:13:03.325Z,-0.74
2017-12-02T09:14:06.681Z,-0.77
2017-12-02T09:15:09.800Z,-0.86
2017-12-02T09:16:12.807Z,-0.76
2017-12-02T09:17:15.827Z,-0.84
2017-12-02T09:18:18.789Z,-0.89
2017-12-02T09:19:21.804Z,-0.91
2017-12-02T09:20:26.210Z,-0.83
2017-12-02T09:21:29.194Z,-0.79
2017-12-02T09:22:32.172Z,-0.91
2017-12-02T09:23:35.789Z,-0.86
2017-12-02T09:24:38.828Z,-0.87
2017-12-02T09:25:42.213Z,-0.84
2017-12-02T09:26:45.545Z,-0.75
2017-12-02T09:27:48.497Z,-0.77
2017-12-02T09:28:51.425Z,-0.48
2017-12-02T09:29:54.421Z,-0.44
2017-12-02T09:30:57.604Z,-0.42
2017-12-02T09:32:00.621Z,-0.29
2017-12-02T09:33:03.927Z,-0.20
2017-12-02T09:34:07.001Z,-0.55
2017-12-02T09:35:11.067Z,-0.51
2017-12-02T09:36:14.110Z,-0.57
2017-12-02T09:37:17.165Z,-0.55
2017-12-02T09:38:20.191Z,-0.56
2017-12-02T09:39:23.475Z,-0.58
2017-12-02T09:40:26.474Z,-0.53
2017-12-02T09:41:29.488Z,-0.23
2017-12-02T09:42:32.404Z,0.31
2017-12-02T09:43:35.433Z,-0.05
2017-12-02T09:44:38.470Z,-0.26
2017-12-02T09:45:41.696Z,0.04
2017-12-02T09:46:44.650Z,0.34
2017-12-02T09:47:47.577Z,0.64
2017-12-02T09:48:50.469Z,0.06
2017-12-02T09:49:53.466Z,0.04
2017-12-02T09:50:56.445Z,0.02
2017-12-02T09:51:59.747Z,-0.23
2017-12-02T09:53:02.750Z,-0.26
2017-12-02T09:54:05.748Z,-0.15
2017-12-02T09:55:08.726Z,-0.22
2017-12-02T09:56:11.778Z,-0.45
2017-12-02T09:57:14.716Z,-0.23
2017-12-02T09:58:18.012Z,-0.15
2017-12-02T09:59:20.969Z,-0.03
2017-12-02T10:00:24.005Z,-0.06
2017-12-02T10:01:27.032Z,-0.31
2017-12-02T10:02:29.996Z,-0.11
2017-12-02T10:03:32.957Z,0.02
2017-12-02T10:04:36.210Z,-0.13
2017-12-02T10:05:39.184Z,-0.18
2017-12-02T10:06:42.283Z,-0.24
2017-12-02T10:07:45.282Z,-0.03
2017-12-02T10:08:49.115Z,0.25
2017-12-02T10:09:53.737Z,-0.07
2017-12-02T10:10:57.254Z,-0.40
2017-12-02T10:12:00.298Z,-0.53
2017-12-02T10:13:03.303Z,-0.33
2017-12-02T10:14:06.451Z,-0.24
2017-12-02T10:15:09.519Z,-0.29
2017-12-02T10:16:12.594Z,-0.34
2017-12-02T10:17:15.959Z,-0.27
2017-12-02T10:18:18.955Z,-0.20
2017-12-02T10:19:22.031Z,-0.16
2017-12-02T10:20:25.072Z,-0.13
2017-12-02T10:21:28.249Z,0.01
2017-12-02T10:22:31.461Z,0.46
2017-12-02T10:23:34.781Z,0.47
2017-12-02T10:24:37.826Z,0.45
2017-12-02T10:25:41.638Z,0.29
2017-12-02T10:26:44.645Z,0.26
2017-12-02T10:27:47.564Z,0.44
2017-12-02T10:28:50.898Z,0.68
2017-12-02T10:29:54.224Z,1.15
2017-12-02T10:30:57.248Z,0.83
2017-12-02T10:32:00.235Z,0.44
2017-12-02T10:33:03.383Z,0.79
2017-12-02T10:34:06.318Z,0.73
2017-12-02T10:35:09.407Z,0.11
2017-12-02T10:36:12.732Z,0.60
2017-12-02T10:37:15.689Z,0.33
2017-12-02T10:38:18.606Z,0.61
2017-12-02T10:39:21.532Z,0.80
2017-12-02T10:40:24.530Z,0.89
2017-12-02T10:41:27.820Z,0.92
2017-12-02T10:42:31.655Z,0.43
2017-12-02T10:43:34.709Z,0.13
2017-12-02T10:44:38.130Z,0.44
2017-12-02T10:45:41.245Z,0.47
2017-12-02T10:46:44.319Z,0.08
2017-12-02T10:47:47.335Z,-0.10
2017-12-02T10:48:50.658Z,0.05
2017-12-02T10:49:53.593Z,0.41
2017-12-02T10:50:56.728Z,-0.01
2017-12-02T10:51:59.749Z,0.43
2017-12-02T10:53:07.871Z,0.65
2017-12-02T10:54:13.813Z,0.72
2017-12-02T10:55:17.242Z,0.44
2017-12-02T10:56:20.235Z,0.21
2017-12-02T10:57:23.234Z,0.31
2017-12-02T10:58:26.296Z,0.41
2017-12-02T10:59:29.290Z,0.81
2017-12-02T11:00:40.126Z,0.83
2017-12-02T11:01:43.031Z,0.82
2017-12-02T11:02:45.913Z,0.73
2017-12-02T11:03:48.918Z,0.47
2017-12-02T11:04:51.894Z,0.36
2017-12-02T11:05:54.733Z,0.10
2017-12-02T11:06:58.032Z,0.13
2017-12-02T11:08:01.718Z,0.48
2017-12-02T11:09:04.675Z,0.48
2017-12-02T11:10:07.714Z,0.75
2017-12-02T11:11:10.722Z,0.72
2017-12-02T11:12:13.830Z,0.57
2017-12-02T11:13:17.387Z,0.33
2017-12-02T11:14:20.610Z,0.84
2017-12-02T11:15:23.550Z,0.74
2017-12-02T11:16:27.061Z,0.30
2017-12-02T11:17:30.019Z,0.24
2017-12-02T11:18:32.974Z,0.60
2017-12-02T11:19:36.561Z,0.89
2017-12-02T11:20:39.543Z,0.93
2017-12-02T11:21:43.077Z,0.63
2017-12-02T11:22:46.082Z,0.40
2017-12-02T11:23:49.039Z,0.51
2017-12-02T11:24:52.452Z,0.51
2017-12-02T11:25:55.414Z,0.37
2017-12-02T11:26:58.341Z,0.32
2017-12-02T11:28:01.484Z,0.21
2017-12-02T11:29:04.367Z,0.21
2017-12-02T11:30:07.367Z,0.43
2017-12-02T11:31:10.312Z,0.46
2017-12-02T11:32:13.255Z,0.41
2017-12-02T11:33:19.001Z,0.59
2017-12-02T11:34:22.022Z,0.61
2017-12-02T11:35:25.081Z,0.77
2017-12-02T11:36:28.489Z,0.64
2017-12-02T11:37:31.477Z,0.46
2017-12-02T11:38:34.452Z,0.32
2017-12-02T11:39:37.569Z,0.44
2017-12-02T11:40:40.955Z,0.94
2017-12-02T11:41:43.995Z,0.73
2017-12-02T11:42:47.189Z,0.44
2017-12-02T11:43:50.221Z,0.59
2017-12-02T11:44:54.064Z,0.66
2017-12-02T11:45:57.103Z,0.72
2017-12-02T11:47:00.153Z,1.04
2017-12-02T11:48:03.760Z,1.28
2017-12-02T11:49:07.293Z,1.04
2017-12-02T11:50:10.661Z,1.24
2017-12-02T11:51:13.662Z,1.25
2017-12-02T11:52:16.872Z,1.14
2017-12-02T11:53:19.843Z,1.36
2017-12-02T11:54:22.839Z,1.39
2017-12-02T11:55:25.838Z,1.70
2017-12-02T11:56:29.056Z,2.00
2017-12-02T11:57:32.044Z,2.24
2017-12-02T11:58:35.167Z,2.38
2017-12-02T11:59:38.614Z,2.74
2017-12-02T12:00:41.684Z,3.38
2017-12-02T12:01:44.690Z,3.05
2017-12-02T12:02:47.978Z,3.48
2017-12-02T12:03:51.177Z,3.84
2017-12-02T12:04:55.228Z,4.14
2017-12-02T12:05:58.758Z,2.97
2017-12-02T12:07:01.889Z,3.59
2017-12-02T12:08:05.021Z,2.39
2017-12-02T12:09:08.090Z,2.53
2017-12-02T12:10:11.508Z,2.85
2017-12-02T12:11:14.833Z,3.08
2017-12-02T12:12:18.145Z,2.76
2017-12-02T12:13:21.666Z,3.66
2017-12-02T12:14:24.729Z,3.09
2017-12-02T12:15:28.344Z,4.23
2017-12-02T12:16:31.673Z,3.49
2017-12-02T12:17:35.127Z,4.42
2017-12-02T12:18:38.382Z,4.46
2017-12-02T12:19:41.675Z,4.17
2017-12-02T12:20:44.734Z,4.01
2017-12-02T12:21:47.771Z,2.90
2017-12-02T12:22:50.782Z,2.73
2017-12-02T12:23:54.195Z,2.93
2017-12-02T12:24:57.243Z,2.13
2017-12-02T12:26:00.275Z,2.72
2017-12-02T12:27:03.402Z,2.61
2017-12-02T12:28:06.845Z,2.90
2017-12-02T12:29:10.012Z,2.38
2017-12-02T12:30:13.973Z,2.27
2017-12-02T12:31:17.819Z,2.69
2017-12-02T12:32:21.179Z,2.46
2017-12-02T12:33:24.121Z,2.30
2017-12-02T12:34:27.114Z,2.70
2017-12-02T12:35:30.093Z,2.33
2017-12-02T12:36:33.384Z,1.77
2017-12-02T12:37:36.743Z,1.79
2017-12-02T12:38:39.898Z,1.26
2017-12-02T12:39:44.185Z,1.81
2017-12-02T12:40:47.396Z,1.60
2017-12-02T12:41:50.915Z,2.15
2017-12-02T12:42:54.205Z,1.23
2017-12-02T12:43:57.219Z,1.42
2017-12-02T12:45:00.264Z,1.39
2017-12-02T12:46:03.338Z,1.55
2017-12-02T12:47:06.375Z,0.97
2017-12-02T12:48:10.499Z,1.31
2017-12-02T12:49:13.841Z,1.20
2017-12-02T12:50:17.001Z,0.99
2017-12-02T12:51:19.964Z,1.20
2017-12-02T12:52:22.988Z,1.30
2017-12-02T12:53:26.154Z,1.53
2017-12-02T12:54:29.910Z,1.63
2017-12-02T12:55:33.397Z,2.05
2017-12-02T12:56:36.554Z,2.09
2017-12-02T12:57:39.531Z,2.24
2017-12-02T12:58:42.507Z,1.91
2017-12-02T12:59:45.719Z,1.68
2017-12-02T13:00:49.457Z,1.66
2017-12-02T13:01:52.655Z,1.30
2017-12-02T13:02:55.583Z,1.51
2017-12-02T13:03:58.504Z,1.42
2017-12-02T13:05:02.828Z,1.33
2017-12-02T13:06:05.679Z,1.28
2017-12-02T13:07:09.134Z,1.30
2017-12-02T13:08:12.096Z,1.41
2017-12-02T13:09:15.497Z,1.33
2017-12-02T13:10:19.175Z,1.38
2017-12-02T13:11:22.224Z,1.30
2017-12-02T13:12:25.339Z,1.51
2017-12-02T13:13:29.440Z,1.17
2017-12-02T13:14:32.843Z,1.25
2017-12-02T13:15:36.516Z,1.32
2017-12-02T13:16:39.716Z,1.11
2017-12-02T13:17:42.771Z,1.14
2017-12-02T13:18:45.776Z,1.36
2017-12-02T13:19:49.986Z,1.59
2017-12-02T13:20:53.067Z,1.53
2017-12-02T13:21:56.246Z,1.66
2017-12-02T13:22:59.315Z,1.31
2017-12-02T13:24:02.327Z,0.80
2017-12-02T13:25:05.387Z,0.85
2017-12-02T13:26:09.016Z,1.22
2017-12-02T13:27:12.610Z,1.53
2017-12-02T13:28:15.604Z,1.11
2017-12-02T13:29:18.694Z,0.94
2017-12-02T13:30:21.913Z,0.77
2017-12-02T13:31:25.116Z,0.90
2017-12-02T13:32:28.711Z,0.76
2017-12-02T13:33:31.685Z,0.67
2017-12-02T13:34:34.846Z,0.66
2017-12-02T13:35:37.940Z,1.01
2017-12-02T13:36:41.147Z,0.81
2017-12-02T13:37:44.195Z,0.66
2017-12-02T13:38:47.636Z,0.52
2017-12-02T13:39:51.880Z,0.65